Ballentine, South Carolina
Current Conditions -  °F | °C
As of 8:56 AM on Saturday 25 Oct 2014 (Local Time) from KCAE Reporting Station
Haze Haze  
Wind Chill: 46°   Ceiling: Unl
Heat Index: 46°   Visibility: 3mi
Dew Point: 43°   Wind: 3mph
Humidity: 89%   Direction: 200°SSW
Pressure: 30.05"   Gusts: NA
Location:  34.12°N, 81.24°W
Report Text: KCAE 251256Z 20003KT 3SM BR CLR 08/06 A3005 RMK AO2 SLP174 T00780061
Loading
Personal Weather Stations






























Interactive Weather Map
Tropical Storm Tracking
New forecast layout! Learn more

10-Day Weather Forecast

Advertisements
Track Severe Weather on mobile